Time;durP1;ratioP1;P1;durP2;ratioP2;P2;SDS_P1;SDS_P2;PMS_P1;PMS_P2;Temp;Humidity;BMP_temperature;BMP_pressure;BME280_temperature;BME280_humidity;BME280_pressure;Samples;Min_cycle;Max_cycle;Signal;HPM_P1;HPM_P2
2023/07/24 00:02:00;;;;;;;11.93;5.27;;;17.70;99.90;;;;;;5074957;28;20066;-73
2023/07/24 00:04:25;;;;;;;8.97;5.10;;;17.70;99.90;;;;;;5058525;28;20182;-73
2023/07/24 00:06:51;;;;;;;12.57;5.30;;;17.70;99.90;;;;;;5058346;28;20063;-74
2023/07/24 00:09:17;;;;;;;11.30;5.80;;;17.70;99.90;;;;;;5058504;28;20066;-73
2023/07/24 00:11:42;;;;;;;10.83;5.57;;;17.70;99.90;;;;;;5091963;28;20051;-73
2023/07/24 00:14:08;;;;;;;13.50;5.93;;;17.70;99.90;;;;;;5074842;28;20480;-72
2023/07/24 00:16:34;;;;;;;14.40;5.83;;;17.70;99.90;;;;;;5091724;28;20369;-73
2023/07/24 00:18:59;;;;;;;12.73;5.57;;;17.70;99.90;;;;;;5074523;28;20080;-73
2023/07/24 00:21:25;;;;;;;12.17;5.73;;;17.70;99.90;;;;;;5092975;28;20109;-73
2023/07/24 00:23:51;;;;;;;12.33;6.17;;;17.70;99.90;;;;;;5092789;28;20048;-73
2023/07/24 00:26:17;;;;;;;10.47;5.40;;;17.70;99.90;;;;;;5074895;28;20118;-73
2023/07/24 00:28:42;;;;;;;10.20;5.70;;;17.70;99.90;;;;;;5075015;28;20426;-73
2023/07/24 00:31:08;;;;;;;12.67;5.57;;;17.60;99.90;;;;;;5057869;28;20040;-73
2023/07/24 00:33:34;;;;;;;10.57;5.80;;;17.60;99.90;;;;;;5058254;28;20158;-73
2023/07/24 00:35:59;;;;;;;13.97;5.83;;;17.60;99.90;;;;;;5092490;28;20046;-73
2023/07/24 00:38:25;;;;;;;10.33;5.87;;;17.60;99.90;;;;;;5074572;28;20052;-73
2023/07/24 00:40:51;;;;;;;12.40;5.97;;;17.60;99.90;;;;;;5091686;28;20108;-73
2023/07/24 00:43:17;;;;;;;11.37;5.50;;;17.60;99.90;;;;;;5091426;28;20051;-73
2023/07/24 00:45:44;;;;;;;10.40;6.37;;;17.60;99.90;;;;;;5074769;28;20047;-73
2023/07/24 00:48:10;;;;;;;14.27;6.97;;;17.60;99.90;;;;;;5074218;28;20144;-73
2023/07/24 00:50:37;;;;;;;11.83;5.63;;;17.60;99.90;;;;;;5041521;28;20102;-73
2023/07/24 00:53:04;;;;;;;11.83;6.67;;;17.60;99.90;;;;;;5094841;28;20040;-73
2023/07/24 00:55:33;;;;;;;12.40;6.90;;;17.50;99.90;;;;;;5078770;28;20137;-73
2023/07/24 00:58:00;;;;;;;13.47;6.70;;;17.60;99.90;;;;;;5078221;28;20101;-74
2023/07/24 01:00:26;;;;;;;16.23;6.50;;;17.50;99.90;;;;;;5095168;28;20396;-73
2023/07/24 01:02:53;;;;;;;14.73;7.30;;;17.50;99.90;;;;;;5096337;28;20060;-73
2023/07/24 01:05:21;;;;;;;13.87;7.70;;;17.50;99.90;;;;;;5094991;28;20052;-73
2023/07/24 01:07:47;;;;;;;12.93;6.73;;;17.50;99.90;;;;;;5061326;28;20048;-73
2023/07/24 01:10:12;;;;;;;14.90;7.47;;;17.50;99.90;;;;;;5094900;28;20048;-73
2023/07/24 01:13:00;;;;;;;12.50;6.87;;;17.50;99.90;;;;;;5094776;28;20047;-73
2023/07/24 01:15:31;;;;;;;13.73;6.67;;;17.40;99.90;;;;;;5095090;28;20055;-73
2023/07/24 01:18:00;;;;;;;15.03;7.13;;;17.40;99.90;;;;;;5095071;28;20055;-73
2023/07/24 01:20:29;;;;;;;12.67;7.00;;;17.40;99.90;;;;;;5078137;28;20052;-73
2023/07/24 01:23:18;;;;;;;13.27;7.73;;;17.40;99.90;;;;;;5078023;28;20040;-73
2023/07/24 01:26:04;;;;;;;12.00;6.97;;;17.30;99.90;;;;;;5069361;28;20512;-73
2023/07/24 01:28:31;;;;;;;12.97;7.20;;;17.30;99.90;;;;;;5078057;28;20094;-73
2023/07/24 01:30:57;;;;;;;12.80;7.63;;;17.30;99.90;;;;;;5061376;28;20468;-73
2023/07/24 01:33:24;;;;;;;11.47;7.53;;;17.30;99.90;;;;;;5077736;28;20048;-73
2023/07/24 01:35:54;;;;;;;14.40;6.60;;;17.20;99.90;;;;;;5061495;28;20051;-73
2023/07/24 01:38:21;;;;;;;11.40;7.70;;;17.20;99.90;;;;;;5094285;28;20502;-73
2023/07/24 01:40:48;;;;;;;13.63;6.97;;;17.20;99.90;;;;;;5094881;28;20138;-72
2023/07/24 01:43:14;;;;;;;12.23;7.50;;;17.20;99.90;;;;;;5093858;28;20060;-73
2023/07/24 01:45:40;;;;;;;11.30;7.73;;;17.10;99.90;;;;;;5077925;28;20089;-73
2023/07/24 01:48:06;;;;;;;11.83;7.90;;;17.20;99.90;;;;;;5060369;28;20430;-73
2023/07/24 01:50:32;;;;;;;13.17;7.17;;;17.10;99.90;;;;;;5095358;28;20052;-73
2023/07/24 01:52:58;;;;;;;11.40;7.37;;;17.10;99.90;;;;;;5077499;28;20047;-73
2023/07/24 01:55:24;;;;;;;11.80;7.00;;;17.10;99.90;;;;;;5093378;28;20047;-73
2023/07/24 01:57:50;;;;;;;14.03;7.10;;;17.10;99.90;;;;;;5095226;28;20044;-73
2023/07/24 02:00:15;;;;;;;11.40;7.23;;;17.10;99.90;;;;;;5093976;28;20051;-73
2023/07/24 02:02:41;;;;;;;13.13;7.10;;;17.10;99.90;;;;;;5094622;28;20464;-73
2023/07/24 02:05:07;;;;;;;19.13;7.47;;;17.10;99.90;;;;;;5093226;28;20090;-73
2023/07/24 02:07:33;;;;;;;11.63;7.30;;;17.10;99.90;;;;;;5077084;28;20139;-73
2023/07/24 02:09:59;;;;;;;13.67;7.47;;;17.00;99.90;;;;;;5060798;28;20564;-73
2023/07/24 02:12:24;;;;;;;11.77;6.93;;;17.10;99.90;;;;;;5093593;28;20051;-73
2023/07/24 02:14:51;;;;;;;12.03;7.27;;;17.10;99.90;;;;;;5077188;28;20080;-73
2023/07/24 02:17:17;;;;;;;13.23;7.60;;;17.10;99.90;;;;;;5093494;28;20056;-73
2023/07/24 02:19:43;;;;;;;15.30;7.50;;;17.10;99.90;;;;;;5076714;28;20121;-73
2023/07/24 02:22:09;;;;;;;13.23;7.03;;;17.10;99.90;;;;;;5093469;28;20052;-73
2023/07/24 02:24:35;;;;;;;10.20;6.63;;;17.20;99.90;;;;;;5093790;28;20051;-73
2023/07/24 02:27:01;;;;;;;11.00;6.30;;;17.20;99.90;;;;;;5093414;28;20052;-73
2023/07/24 02:29:27;;;;;;;10.67;6.60;;;17.20;99.90;;;;;;5076549;28;20147;-73
2023/07/24 02:31:54;;;;;;;12.90;7.03;;;17.20;99.90;;;;;;5076936;28;20118;-73
2023/07/24 02:34:24;;;;;;;12.17;7.03;;;17.20;99.90;;;;;;5076378;28;20086;-73
2023/07/24 02:36:50;;;;;;;12.03;6.47;;;17.30;99.90;;;;;;5077243;28;20044;-73
2023/07/24 02:39:16;;;;;;;13.03;6.90;;;17.30;99.90;;;;;;5076341;28;20464;-73
2023/07/24 02:41:42;;;;;;;15.37;6.80;;;17.30;99.90;;;;;;5076570;28;20056;-73
2023/07/24 02:44:07;;;;;;;9.73;5.57;;;17.30;99.90;;;;;;5093445;28;20051;-73
2023/07/24 02:46:33;;;;;;;10.43;5.97;;;17.40;99.90;;;;;;5076307;28;20507;-73
2023/07/24 02:48:59;;;;;;;12.83;6.60;;;17.30;99.90;;;;;;5092568;28;20055;-73
2023/07/24 02:51:25;;;;;;;14.90;6.63;;;17.40;99.90;;;;;;5092713;28;20048;-73
2023/07/24 02:53:52;;;;;;;12.40;5.87;;;17.40;99.90;;;;;;5093130;28;20051;-73
2023/07/24 02:56:18;;;;;;;9.13;6.07;;;17.40;99.90;;;;;;5059241;28;20507;-73
2023/07/24 02:58:44;;;;;;;13.70;6.50;;;17.40;99.90;;;;;;5042964;28;20056;-73
2023/07/24 03:01:11;;;;;;;15.30;6.77;;;17.40;99.90;;;;;;5092929;28;20122;-74
2023/07/24 03:03:37;;;;;;;12.77;6.57;;;17.40;99.90;;;;;;5059849;28;20052;-73
2023/07/24 03:06:03;;;;;;;12.57;5.80;;;17.40;99.90;;;;;;5075838;28;20054;-73
2023/07/24 03:08:28;;;;;;;13.70;6.33;;;17.40;99.90;;;;;;5075785;28;20079;-73
2023/07/24 03:10:54;;;;;;;12.57;5.97;;;17.50;99.90;;;;;;5092989;28;20039;-73
2023/07/24 03:13:20;;;;;;;10.57;5.63;;;17.50;99.90;;;;;;5092379;28;20387;-73
2023/07/24 03:15:53;;;;;;;14.17;6.07;;;17.50;99.90;;;;;;5092693;28;20054;-73
2023/07/24 03:18:19;;;;;;;9.57;6.67;;;17.50;99.90;;;;;;5092441;28;20482;-73
2023/07/24 03:20:45;;;;;;;12.33;6.80;;;17.50;99.90;;;;;;5075896;28;20048;-73
2023/07/24 03:23:11;;;;;;;11.07;6.20;;;17.50;99.90;;;;;;5059180;28;20071;-73
2023/07/24 03:25:36;;;;;;;12.00;6.73;;;17.50;99.90;;;;;;5058838;28;20430;-73
2023/07/24 03:28:02;;;;;;;11.80;6.10;;;17.50;99.90;;;;;;5075743;28;20051;-73
2023/07/24 03:30:28;;;;;;;13.90;6.00;;;17.50;99.90;;;;;;5075387;28;20094;-73
2023/07/24 03:32:54;;;;;;;11.87;5.73;;;17.60;99.90;;;;;;5058717;28;20062;-72
2023/07/24 03:35:19;;;;;;;16.33;6.60;;;17.60;99.90;;;;;;5075376;28;20076;-73
2023/07/24 03:37:45;;;;;;;9.80;5.77;;;17.60;99.90;;;;;;5092545;28;20437;-73
2023/07/24 03:40:11;;;;;;;11.83;6.50;;;17.60;99.90;;;;;;5075221;28;20047;-73
2023/07/24 03:42:37;;;;;;;10.20;6.10;;;17.60;99.90;;;;;;5058666;28;20048;-73
2023/07/24 03:45:03;;;;;;;12.10;5.63;;;17.60;99.90;;;;;;5092214;28;20365;-73
2023/07/24 03:47:29;;;;;;;15.27;6.57;;;17.60;99.90;;;;;;5091476;28;20063;-73
2023/07/24 03:49:55;;;;;;;14.13;5.80;;;17.60;99.90;;;;;;5091948;28;20048;-73
2023/07/24 03:52:21;;;;;;;11.03;5.67;;;17.60;99.90;;;;;;5075049;28;20051;-73
2023/07/24 03:54:46;;;;;;;13.93;6.57;;;17.60;99.90;;;;;;5092873;28;20051;-73
2023/07/24 03:57:12;;;;;;;8.83;5.63;;;17.60;99.90;;;;;;5092141;28;20062;-73
2023/07/24 03:59:38;;;;;;;10.00;5.30;;;17.60;99.90;;;;;;5091471;28;20509;-73
2023/07/24 04:02:04;;;;;;;10.77;5.47;;;17.60;99.90;;;;;;5075241;28;20487;-73
2023/07/24 04:04:31;;;;;;;11.10;5.47;;;17.60;99.90;;;;;;5092519;28;20483;-73
2023/07/24 04:06:56;;;;;;;10.27;6.03;;;17.60;99.90;;;;;;5092002;28;20079;-73
2023/07/24 04:09:22;;;;;;;10.43;5.40;;;17.60;99.90;;;;;;5074701;28;20504;-73
2023/07/24 04:11:48;;;;;;;11.67;6.23;;;17.60;99.90;;;;;;5075274;28;20549;-73
2023/07/24 04:14:13;;;;;;;13.97;6.83;;;17.60;99.90;;;;;;5092004;28;20055;-73
2023/07/24 04:16:39;;;;;;;10.03;5.80;;;17.70;99.90;;;;;;5074874;28;20052;-73
2023/07/24 04:19:05;;;;;;;11.40;6.60;;;17.60;99.90;;;;;;5091953;28;20055;-73
2023/07/24 04:21:31;;;;;;;10.23;6.70;;;17.60;99.90;;;;;;5057803;28;20155;-73
2023/07/24 04:23:57;;;;;;;12.00;7.07;;;17.60;99.90;;;;;;5058347;28;20040;-73
2023/07/24 04:26:22;;;;;;;13.33;7.07;;;17.60;99.90;;;;;;5058451;28;20127;-74
2023/07/24 04:28:48;;;;;;;12.70;6.70;;;17.60;99.90;;;;;;5062477;28;20044;-73
2023/07/24 04:31:14;;;;;;;10.27;6.03;;;17.60;99.90;;;;;;5079060;28;20039;-73
2023/07/24 04:33:39;;;;;;;11.20;6.63;;;17.60;99.90;;;;;;5078815;28;20127;-73
2023/07/24 04:36:05;;;;;;;10.97;7.13;;;17.60;99.90;;;;;;5078707;28;20048;-73
2023/07/24 04:38:31;;;;;;;12.73;6.20;;;17.60;99.90;;;;;;5078570;28;20055;-73
2023/07/24 04:40:57;;;;;;;11.97;6.77;;;17.60;99.90;;;;;;5078681;28;20055;-73
2023/07/24 04:43:22;;;;;;;10.30;6.80;;;17.60;99.90;;;;;;5078623;28;20508;-74
2023/07/24 04:45:48;;;;;;;10.73;7.10;;;17.60;99.90;;;;;;5078817;28;20361;-73
2023/07/24 04:48:14;;;;;;;12.60;7.07;;;17.60;99.90;;;;;;5061965;28;20060;-73
2023/07/24 04:50:40;;;;;;;10.13;7.17;;;17.60;99.90;;;;;;5095310;28;20044;-73
2023/07/24 04:53:05;;;;;;;10.03;6.67;;;17.60;99.90;;;;;;5078718;28;20047;-73
2023/07/24 04:55:31;;;;;;;11.53;6.93;;;17.60;99.90;;;;;;5078334;28;20549;-73
2023/07/24 04:57:57;;;;;;;10.87;6.50;;;17.60;99.90;;;;;;5078302;28;20131;-73
2023/07/24 05:00:22;;;;;;;13.43;6.90;;;17.60;99.90;;;;;;5078649;28;20043;-73
2023/07/24 05:02:48;;;;;;;13.23;7.87;;;17.60;99.90;;;;;;5078157;28;20054;-73
2023/07/24 05:05:14;;;;;;;11.03;7.23;;;17.60;99.90;;;;;;5058067;28;20040;-73
2023/07/24 05:07:39;;;;;;;9.90;7.50;;;17.60;99.90;;;;;;5041166;28;20484;-73
2023/07/24 05:10:06;;;;;;;10.70;7.43;;;17.70;99.90;;;;;;5058316;28;20048;-73
2023/07/24 05:12:31;;;;;;;10.57;7.70;;;17.60;99.90;;;;;;5057981;28;20105;-74
2023/07/24 05:14:57;;;;;;;12.40;7.90;;;17.70;99.90;;;;;;5058246;28;20044;-74
2023/07/24 05:17:23;;;;;;;11.47;8.07;;;17.70;99.90;;;;;;5074241;28;20048;-74
2023/07/24 05:19:48;;;;;;;11.57;7.77;;;17.70;99.90;;;;;;5074262;28;20036;-74
2023/07/24 05:22:14;;;;;;;11.77;7.60;;;17.70;99.90;;;;;;5074715;28;20472;-74
2023/07/24 05:24:40;;;;;;;11.33;8.33;;;17.70;99.90;;;;;;5074066;28;20097;-73
2023/07/24 05:27:06;;;;;;;11.00;7.40;;;17.70;99.90;;;;;;5074918;28;20041;-73
2023/07/24 05:29:32;;;;;;;11.77;7.67;;;17.70;99.90;;;;;;5075451;28;20161;-73
2023/07/24 05:31:58;;;;;;;14.60;8.10;;;17.70;99.90;;;;;;5058007;28;20040;-73
2023/07/24 05:34:25;;;;;;;11.53;7.47;;;17.70;99.90;;;;;;5058010;28;20048;-73
2023/07/24 05:36:51;;;;;;;12.03;7.73;;;17.70;99.90;;;;;;5074205;28;20070;-73
2023/07/24 05:39:16;;;;;;;11.17;7.60;;;17.70;99.90;;;;;;5057341;28;20052;-79
2023/07/24 05:41:49;;;;;;;12.77;7.27;;;17.80;99.90;;;;;;5040886;28;20071;-79
2023/07/24 05:44:43;;;;;;;13.27;7.17;;;17.80;99.90;;;;;;5058465;28;20128;-81
2023/07/24 05:47:11;;;;;;;14.10;7.47;;;17.80;99.90;;;;;;5057175;28;20056;-77
2023/07/24 05:49:37;;;;;;;11.10;6.33;;;17.80;99.90;;;;;;5073695;28;20044;-79
2023/07/24 05:52:02;;;;;;;14.40;7.10;;;17.80;99.90;;;;;;5057596;28;20061;-79
2023/07/24 05:54:29;;;;;;;14.23;6.77;;;17.80;99.90;;;;;;5074163;28;20048;-80
2023/07/24 05:56:58;;;;;;;13.37;6.60;;;17.80;99.90;;;;;;5074869;28;20503;-80
2023/07/24 05:59:24;;;;;;;16.07;6.20;;;17.90;99.90;;;;;;5057340;28;20040;-75
2023/07/24 06:01:56;;;;;;;12.10;5.80;;;17.90;99.90;;;;;;5074095;28;20113;-82
2023/07/24 06:04:21;;;;;;;13.83;5.83;;;17.90;99.90;;;;;;5075202;28;20094;-76
2023/07/24 06:06:58;;;;;;;15.17;7.10;;;17.90;99.90;;;;;;5073260;28;20079;-81
2023/07/24 06:09:37;;;;;;;12.23;7.30;;;17.90;99.90;;;;;;5058347;28;20080;-81
2023/07/24 06:12:55;;;;;;;13.10;7.00;;;18.00;99.90;;;;;;5038137;28;20095;-81
2023/07/24 06:15:31;;;;;;;13.13;6.37;;;18.00;99.90;;;;;;5074040;28;20044;-80
2023/07/24 06:17:59;;;;;;;16.07;5.97;;;18.00;99.90;;;;;;5039868;28;20189;-81
2023/07/24 06:20:35;;;;;;;13.47;7.00;;;18.00;99.90;;;;;;5040628;28;20056;-80
2023/07/24 06:23:12;;;;;;;15.30;6.83;;;18.10;99.90;;;;;;5073876;28;20411;-80
2023/07/24 06:26:18;;;;;;;18.53;6.27;;;18.10;99.90;;;;;;5074167;28;20063;-80
2023/07/24 06:28:57;;;;;;;14.07;6.40;;;18.20;99.90;;;;;;5074308;28;20480;-80
2023/07/24 06:31:50;;;;;;;16.33;6.50;;;18.20;99.90;;;;;;5073187;28;20523;-80
2023/07/24 06:34:32;;;;;;;11.40;6.07;;;18.20;99.90;;;;;;5074600;28;20087;-80
2023/07/24 06:37:10;;;;;;;18.43;6.90;;;18.20;99.90;;;;;;5057288;28;20058;-80
2023/07/24 06:39:44;;;;;;;13.13;6.20;;;18.20;99.90;;;;;;5058459;28;20153;-79
2023/07/24 06:42:16;;;;;;;16.83;6.87;;;18.30;99.90;;;;;;5073011;28;20050;-80
2023/07/24 06:45:02;;;;;;;15.77;7.43;;;18.30;99.90;;;;;;5072170;28;20059;-80
2023/07/24 06:47:29;;;;;;;13.70;6.67;;;18.30;99.90;;;;;;5049949;28;20088;-79
2023/07/24 06:49:59;;;;;;;15.67;6.40;;;18.30;99.90;;;;;;5022766;28;20048;-80
2023/07/24 06:52:26;;;;;;;13.63;6.67;;;18.30;99.90;;;;;;5071876;28;20174;-80
2023/07/24 06:55:05;;;;;;;16.27;6.80;;;18.40;99.90;;;;;;5041154;28;20125;-80
2023/07/24 06:57:46;;;;;;;14.63;6.17;;;18.40;99.90;;;;;;5057096;28;20110;-80
2023/07/24 07:00:15;;;;;;;14.93;6.70;;;18.40;99.90;;;;;;5072825;28;20492;-80
2023/07/24 07:02:50;;;;;;;13.87;7.23;;;18.40;99.90;;;;;;5072685;28;20506;-80
2023/07/24 07:05:21;;;;;;;14.23;6.80;;;18.40;99.90;;;;;;5056274;28;20049;-80
2023/07/24 07:07:48;;;;;;;21.40;7.70;;;18.40;99.90;;;;;;5055374;28;20048;-80
2023/07/24 07:10:26;;;;;;;14.67;6.50;;;18.50;99.90;;;;;;5057707;28;20044;-80
2023/07/24 07:12:57;;;;;;;14.33;7.80;;;18.50;99.90;;;;;;5073589;28;20044;-80
2023/07/24 07:16:19;;;;;;;12.83;7.10;;;18.50;99.90;;;;;;5042191;28;20075;-80
2023/07/24 07:18:53;;;;;;;16.57;6.97;;;18.50;99.90;;;;;;5056035;28;20060;-80
2023/07/24 07:21:20;;;;;;;15.50;6.93;;;18.50;99.90;;;;;;5071850;28;20052;-80
2023/07/24 07:23:49;;;;;;;16.73;6.83;;;18.60;99.90;;;;;;5056105;28;20053;-80
2023/07/24 07:26:19;;;;;;;19.27;7.57;;;18.60;99.90;;;;;;5073578;28;20127;-80
2023/07/24 07:28:47;;;;;;;13.83;6.73;;;18.70;99.90;;;;;;5071931;28;20102;-80
2023/07/24 07:31:17;;;;;;;19.43;8.23;;;18.70;99.90;;;;;;5040426;28;20056;-80
2023/07/24 07:33:44;;;;;;;16.30;8.23;;;18.70;99.90;;;;;;5071468;28;20084;-80
2023/07/24 07:36:15;;;;;;;18.07;7.53;;;18.80;99.90;;;;;;5024776;28;20480;-80
2023/07/24 07:39:06;;;;;;;16.53;7.60;;;18.90;99.90;;;;;;5072092;28;20037;-80
2023/07/24 07:41:50;;;;;;;18.33;7.40;;;19.00;99.90;;;;;;5072082;28;20473;-81
2023/07/24 07:44:18;;;;;;;;;;;19.00;99.90;;;;;;5072036;28;20052;-80
2023/07/24 07:46:50;;;;;;;19.00;7.53;;;19.00;99.90;;;;;;5088221;28;20386;-80
2023/07/24 07:49:18;;;;;;;20.53;8.20;;;19.00;99.90;;;;;;5021467;28;20048;-80
2023/07/24 07:51:49;;;;;;;21.07;7.83;;;19.00;99.90;;;;;;5071967;28;20044;-81
2023/07/24 07:54:16;;;;;;;19.97;6.37;;;19.10;99.90;;;;;;5072106;28;20056;-80
2023/07/24 07:56:43;;;;;;;14.53;6.87;;;19.10;99.90;;;;;;5038878;28;20048;-83
2023/07/24 07:59:45;;;;;;;20.73;7.63;;;19.10;99.90;;;;;;5072889;28;20039;-80
2023/07/24 08:02:18;;;;;;;16.83;6.87;;;19.10;99.90;;;;;;5072800;28;20071;-80
2023/07/24 08:04:47;;;;;;;19.57;8.07;;;19.10;99.90;;;;;;5069555;28;20052;-81
2023/07/24 08:07:21;;;;;;;14.85;6.82;;;19.10;99.90;;;;;;5072942;28;20114;-80
2023/07/24 08:10:01;;;;;;;16.80;7.70;;;19.10;99.90;;;;;;5071932;28;20095;-81
2023/07/24 08:12:27;;;;;;;17.33;8.53;;;19.10;99.90;;;;;;5055222;28;20143;-80
2023/07/24 08:14:53;;;;;;;16.53;7.87;;;19.20;99.90;;;;;;5054489;28;20061;-80
2023/07/24 08:17:35;;;;;;;15.27;7.30;;;19.20;99.90;;;;;;5064935;28;20485;-80
2023/07/24 08:20:13;;;;;;;16.97;6.83;;;19.30;99.90;;;;;;5071156;28;20040;-81
2023/07/24 08:22:47;;;;;;;17.30;7.93;;;19.30;99.90;;;;;;5071640;28;20055;-80
2023/07/24 08:25:41;;;;;;;14.07;7.13;;;19.40;99.90;;;;;;5072006;28;20067;-80
2023/07/24 08:28:36;;;;;;;15.20;6.90;;;19.50;99.90;;;;;;5059309;28;20059;-80
2023/07/24 08:31:16;;;;;;;14.70;7.00;;;19.60;99.90;;;;;;5071636;28;20052;-80
2023/07/24 08:33:47;;;;;;;20.77;7.77;;;19.70;99.90;;;;;;5073002;28;20057;-79
2023/07/24 08:36:38;;;;;;;18.90;8.47;;;19.80;99.90;;;;;;5033174;28;20150;-80
2023/07/24 08:39:17;;;;;;;15.20;7.10;;;19.80;99.90;;;;;;5001346;28;20049;-79
2023/07/24 08:41:42;;;;;;;15.90;7.17;;;19.90;99.90;;;;;;5033622;28;20099;-79
2023/07/24 08:44:16;;;;;;;14.47;7.30;;;19.90;99.90;;;;;;4987136;28;20048;-80
2023/07/24 08:46:58;;;;;;;12.63;6.37;;;20.00;99.90;;;;;;5049230;28;20084;-80
2023/07/24 08:49:26;;;;;;;12.03;6.10;;;20.00;99.90;;;;;;5016797;28;20045;-79
2023/07/24 08:52:11;;;;;;;11.63;6.73;;;20.10;99.90;;;;;;5049727;28;20082;-80
2023/07/24 08:54:45;;;;;;;17.47;6.93;;;20.10;99.90;;;;;;5017696;28;20060;-80
2023/07/24 08:57:13;;;;;;;17.42;7.43;;;20.20;99.90;;;;;;5033233;28;20053;-80
2023/07/24 08:59:46;;;;;;;14.77;7.53;;;20.30;99.90;;;;;;5033561;28;20060;-80
2023/07/24 09:02:38;;;;;;;14.27;7.43;;;20.40;99.90;;;;;;5034778;28;20057;-79
2023/07/24 09:05:05;;;;;;;14.67;7.07;;;20.50;99.90;;;;;;5035195;28;20056;-80
2023/07/24 09:07:36;;;;;;;14.93;7.10;;;20.60;99.90;;;;;;5064624;28;20048;-80
2023/07/24 09:10:02;;;;;;;16.07;6.97;;;20.70;99.90;;;;;;5054462;28;20056;-80
2023/07/24 09:12:31;;;;;;;13.30;7.33;;;20.90;99.90;;;;;;5055066;28;20052;-79
2023/07/24 09:15:12;;;;;;;11.33;6.77;;;21.00;99.90;;;;;;5041910;28;20044;-79
2023/07/24 09:17:50;;;;;;;13.10;7.03;;;21.40;99.90;;;;;;5059250;28;20465;-80
2023/07/24 09:20:23;;;;;;;11.37;6.70;;;21.60;99.90;;;;;;5043234;28;20115;-79
2023/07/24 09:22:57;;;;;;;11.80;6.33;;;21.80;99.90;;;;;;5058446;28;20098;-80
2023/07/24 09:25:40;;;;;;;9.93;5.77;;;22.10;99.90;;;;;;5041838;28;20096;-80
2023/07/24 09:28:52;;;;;;;9.87;5.67;;;22.20;99.90;;;;;;5074634;28;20045;-80
2023/07/24 09:31:43;;;;;;;8.87;5.83;;;22.30;99.90;;;;;;5074432;28;20091;-79
2023/07/24 09:34:19;;;;;;;9.20;5.80;;;22.40;99.90;;;;;;5074590;28;20045;-79
2023/07/24 09:37:02;;;;;;;9.27;5.78;;;22.50;99.90;;;;;;5074730;28;20049;-80
2023/07/24 09:39:40;;;;;;;10.40;5.70;;;22.50;99.90;;;;;;5058663;28;20146;-79
2023/07/24 09:42:31;;;;;;;10.53;5.73;;;22.60;99.90;;;;;;5057485;28;20067;-80
2023/07/24 09:45:30;;;;;;;13.50;7.00;;;22.50;99.90;;;;;;5074316;28;20048;-79
2023/07/24 09:48:11;;;;;;;11.87;6.73;;;22.40;99.90;;;;;;5075167;28;20056;-80
2023/07/24 09:50:58;;;;;;;12.60;7.00;;;22.20;99.90;;;;;;5041760;28;20135;-80
2023/07/24 09:53:46;;;;;;;11.83;6.87;;;22.00;99.90;;;;;;5073589;28;20053;-80
2023/07/24 09:56:33;;;;;;;9.77;6.63;;;21.90;99.90;;;;;;5073387;28;20041;-81
2023/07/24 09:59:00;;;;;;;12.60;7.60;;;21.90;99.90;;;;;;5057009;28;20048;-80
2023/07/24 10:01:27;;;;;;;12.17;6.13;;;22.00;99.90;;;;;;5073010;28;20088;-80
2023/07/24 10:03:56;;;;;;;11.93;6.60;;;22.20;99.90;;;;;;5072808;28;20049;-80
2023/07/24 10:06:29;;;;;;;11.85;6.63;;;22.40;99.90;;;;;;5074773;28;20057;-80
2023/07/24 10:08:59;;;;;;;12.80;7.87;;;22.50;99.90;;;;;;5073837;28;20109;-80
2023/07/24 10:11:40;;;;;;;13.13;7.37;;;22.70;99.90;;;;;;5072847;28;20040;-80
2023/07/24 10:14:13;;;;;;;8.70;5.90;;;22.80;99.90;;;;;;5057836;28;20083;-80
2023/07/24 10:16:44;;;;;;;10.37;7.03;;;23.00;99.90;;;;;;5060649;28;20064;-80
2023/07/24 10:19:21;;;;;;;11.90;6.20;;;22.90;99.90;;;;;;5072566;28;20052;-80
2023/07/24 10:21:53;;;;;;;10.87;5.53;;;22.70;99.90;;;;;;5071536;28;20062;-80
2023/07/24 10:24:40;;;;;;;12.10;5.20;;;22.40;99.90;;;;;;5072706;28;20035;-80
2023/07/24 10:27:07;;;;;;;8.57;4.70;;;22.10;99.90;;;;;;5073389;28;20515;-81
2023/07/24 10:29:36;;;;;;;9.43;4.77;;;21.80;99.90;;;;;;5073371;28;20040;-81
2023/07/24 10:32:04;;;;;;;9.97;5.23;;;21.60;99.90;;;;;;5072685;28;20056;-81
2023/07/24 10:34:39;;;;;;;11.23;5.27;;;21.40;99.90;;;;;;5057111;28;20149;-80
2023/07/24 10:37:11;;;;;;;11.33;5.57;;;21.30;99.90;;;;;;5056495;28;20088;-80
2023/07/24 10:39:40;;;;;;;8.90;5.70;;;21.20;99.90;;;;;;5056635;28;20400;-81
2023/07/24 10:42:30;;;;;;;8.80;5.80;;;21.10;99.90;;;;;;5073252;28;20127;-80
2023/07/24 10:45:08;;;;;;;10.43;6.60;;;21.10;99.90;;;;;;5072531;28;20056;-80
2023/07/24 10:47:38;;;;;;;9.63;5.87;;;21.10;99.90;;;;;;5074839;28;20140;-80
2023/07/24 10:50:06;;;;;;;12.07;6.17;;;21.10;99.90;;;;;;5055125;28;20048;-81
2023/07/24 10:52:33;;;;;;;9.00;5.50;;;21.20;99.90;;;;;;5074202;28;20068;-80
2023/07/24 10:55:07;;;;;;;9.13;5.67;;;21.20;99.90;;;;;;5056456;28;20074;-80
2023/07/24 10:57:48;;;;;;;12.50;6.10;;;21.30;99.90;;;;;;5071959;28;20043;-80
2023/07/24 11:00:21;;;;;;;11.30;6.50;;;21.30;99.90;;;;;;5041006;28;20040;-80
2023/07/24 11:03:11;;;;;;;10.27;5.50;;;21.40;99.90;;;;;;5072857;28;20044;-80
2023/07/24 11:05:46;;;;;;;11.33;5.67;;;21.50;99.90;;;;;;5072527;28;20048;-80
2023/07/24 11:08:15;;;;;;;;;;;21.60;99.90;;;;;;5072872;28;20083;-80
2023/07/24 11:10:57;;;;;;;9.50;5.00;;;21.70;99.90;;;;;;5072982;28;19928;-79
2023/07/24 11:13:29;;;;;;;7.73;4.80;;;21.70;99.90;;;;;;5072423;28;20060;-79
2023/07/24 11:16:09;;;;;;;9.33;5.43;;;21.70;99.90;;;;;;5039188;28;20102;-79
2023/07/24 11:18:48;;;;;;;8.57;5.17;;;21.70;99.90;;;;;;5058254;28;20048;-80
2023/07/24 11:21:24;;;;;;;6.85;4.35;;;21.90;99.90;;;;;;5070357;28;20040;-80
2023/07/24 11:23:54;;;;;;;10.10;5.33;;;22.00;99.90;;;;;;5055403;28;20099;-79
2023/07/24 11:26:54;;;;;;;8.70;4.10;;;22.00;99.90;;;;;;5071365;28;20534;-80
2023/07/24 11:29:51;;;;;;;7.50;5.10;;;22.10;99.90;;;;;;5073199;28;20047;-78
2023/07/24 11:32:49;;;;;;;9.10;5.97;;;22.00;99.90;;;;;;5070603;28;20056;-79
2023/07/24 11:35:32;;;;;;;7.43;4.97;;;21.70;99.90;;;;;;5071098;28;20141;-78
2023/07/24 11:38:10;;;;;;;7.70;5.57;;;21.60;99.90;;;;;;5043701;28;20109;-79
2023/07/24 11:40:46;;;;;;;8.03;5.37;;;21.40;99.90;;;;;;5072549;28;20053;-79
2023/07/24 11:43:21;;;;;;;6.33;4.70;;;21.30;99.90;;;;;;5072132;28;20040;-79
2023/07/24 11:45:59;;;;;;;8.03;5.00;;;21.30;99.90;;;;;;5056581;28;20052;-79
2023/07/24 11:48:48;;;;;;;7.37;5.20;;;21.20;99.90;;;;;;5071535;28;20067;-79
2023/07/24 11:51:21;;;;;;;6.67;4.20;;;21.20;99.90;;;;;;5088926;28;20049;-80
2023/07/24 11:53:49;;;;;;;8.43;4.63;;;21.30;99.90;;;;;;5055495;28;20084;-79
2023/07/24 11:56:24;;;;;;;6.27;4.00;;;21.30;99.90;;;;;;5041017;28;20473;-79
2023/07/24 11:58:51;;;;;;;5.90;4.37;;;21.30;99.90;;;;;;5054979;28;20131;-79
2023/07/24 12:01:21;;;;;;;6.33;4.27;;;21.30;99.90;;;;;;5055225;28;20404;-79
2023/07/24 12:03:58;;;;;;;7.37;4.93;;;21.20;99.90;;;;;;5070769;28;20565;-79
2023/07/24 12:07:08;;;;;;;7.03;4.53;;;21.10;99.90;;;;;;5070885;28;20044;-79
2023/07/24 12:10:15;;;;;;;5.57;4.27;;;21.00;99.90;;;;;;5071923;28;20459;-79
2023/07/24 12:12:47;;;;;;;5.63;3.50;;;21.00;99.90;;;;;;5037292;28;20063;-79
2023/07/24 12:15:19;;;;;;;6.57;3.57;;;20.90;99.90;;;;;;5037824;28;20135;-79
2023/07/24 12:17:56;;;;;;;5.43;3.47;;;20.90;99.90;;;;;;5022683;28;20060;-78
2023/07/24 12:20:28;;;;;;;5.10;3.50;;;20.90;99.90;;;;;;5071671;28;20047;-79
2023/07/24 12:22:58;;;;;;;4.63;2.77;;;20.80;99.90;;;;;;5054135;28;20048;-79
2023/07/24 12:25:34;;;;;;;5.70;3.40;;;20.80;99.90;;;;;;5054704;28;20493;-79
2023/07/24 12:28:29;;;;;;;4.70;2.80;;;20.80;99.90;;;;;;5071397;28;20110;-79
2023/07/24 12:31:08;;;;;;;4.82;2.92;;;20.80;99.90;;;;;;5069960;28;20400;-78
2023/07/24 12:33:50;;;;;;;5.57;3.37;;;20.70;99.90;;;;;;5039752;28;20059;-78
2023/07/24 12:36:27;;;;;;;4.30;3.03;;;20.70;99.90;;;;;;5040618;28;20183;-79
2023/07/24 12:39:07;;;;;;;4.43;2.93;;;20.80;99.90;;;;;;5040903;28;20052;-79
2023/07/24 12:41:39;;;;;;;5.40;2.40;;;20.90;99.90;;;;;;5040448;28;20124;-79
2023/07/24 12:44:33;;;;;;;3.33;2.00;;;21.10;99.90;;;;;;5071050;28;20187;-79
2023/07/24 12:47:00;;;;;;;4.40;2.00;;;21.30;99.90;;;;;;5055222;28;20097;-78
2023/07/24 12:49:33;;;;;;;3.47;1.60;;;21.50;99.90;;;;;;5028034;28;20522;-79
2023/07/24 12:52:07;;;;;;;2.80;1.50;;;21.70;99.90;;;;;;5044049;28;20131;-79
2023/07/24 12:54:33;;;;;;;3.03;1.50;;;21.90;99.90;;;;;;5042501;28;20053;-79
2023/07/24 12:57:00;;;;;;;3.27;1.97;;;22.00;99.90;;;;;;5025881;28;20056;-79
2023/07/24 12:59:30;;;;;;;2.27;1.30;;;22.10;99.90;;;;;;5057705;28;20109;-79
2023/07/24 13:02:04;;;;;;;3.57;1.67;;;22.10;99.90;;;;;;5058615;28;20404;-79
2023/07/24 13:04:45;;;;;;;4.83;1.73;;;22.20;99.90;;;;;;5075639;28;20093;-79
2023/07/24 13:07:14;;;;;;;6.63;2.13;;;22.10;99.90;;;;;;5075224;28;20044;-79